Time;durP1;ratioP1;P1;durP2;ratioP2;P2;SDS_P1;SDS_P2;PMS_P1;PMS_P2;Temp;Humidity;BMP_temperature;BMP_pressure;BME280_temperature;BME280_humidity;BME280_pressure;Samples;Min_cycle;Max_cycle;Signal;HPM_P1;HPM_P2
2021/01/25 00:01:35;;;;;;;13.80;6.90;;;1.90;94.20;;;;;;4953826;29;20055;-79
2021/01/25 00:04:02;;;;;;;11.25;6.47;;;2.20;94.50;;;;;;4953294;29;20105;-80
2021/01/25 00:06:28;;;;;;;11.77;6.75;;;2.10;94.10;;;;;;4954104;29;20550;-79
2021/01/25 00:08:55;;;;;;;10.57;6.25;;;2.10;94.50;;;;;;4945419;29;20143;-79
2021/01/25 00:11:22;;;;;;;10.27;5.57;;;2.00;95.10;;;;;;4939528;29;20049;-80
2021/01/25 00:13:49;;;;;;;11.93;6.00;;;2.00;94.70;;;;;;4938784;29;20115;-79
2021/01/25 00:16:15;;;;;;;11.13;5.57;;;2.00;94.90;;;;;;4934900;29;20043;-79
2021/01/25 00:18:42;;;;;;;11.50;5.57;;;2.00;94.70;;;;;;4934558;29;20138;-79
2021/01/25 00:21:08;;;;;;;10.30;5.40;;;2.00;93.90;;;;;;4934705;29;20052;-79
2021/01/25 00:23:35;;;;;;;10.88;5.38;;;2.00;94.00;;;;;;4952939;29;20134;-80
2021/01/25 00:26:02;;;;;;;9.63;5.53;;;2.00;94.10;;;;;;4953849;29;20142;-79
2021/01/25 00:28:29;;;;;;;11.93;5.70;;;2.00;94.20;;;;;;4953701;29;20047;-79
2021/01/25 00:30:56;;;;;;;9.02;5.20;;;2.00;94.40;;;;;;4953372;29;20134;-79
2021/01/25 00:33:22;;;;;;;10.65;5.10;;;1.90;94.50;;;;;;4942482;29;20054;-80
2021/01/25 00:35:49;;;;;;;9.35;4.60;;;2.00;93.70;;;;;;4934034;29;20126;-79
2021/01/25 00:38:15;;;;;;;11.95;5.45;;;2.00;93.70;;;;;;4944606;29;20561;-79
2021/01/25 00:40:42;;;;;;;8.68;4.65;;;2.10;93.80;;;;;;4948683;29;20063;-79
2021/01/25 00:43:09;;;;;;;7.63;3.40;;;2.10;93.70;;;;;;4952415;29;20047;-79
2021/01/25 00:45:36;;;;;;;8.20;3.10;;;2.10;93.20;;;;;;4952958;28;20134;-80
2021/01/25 00:48:02;;;;;;;5.35;2.90;;;2.10;93.10;;;;;;4953199;29;20133;-80
2021/01/25 00:50:29;;;;;;;8.18;3.65;;;2.20;92.40;;;;;;4953078;29;20138;-80
2021/01/25 00:52:55;;;;;;;8.15;3.53;;;2.00;92.60;;;;;;4952794;29;20130;-80
2021/01/25 00:55:22;;;;;;;8.90;4.03;;;2.00;92.60;;;;;;4949551;29;20114;-80
2021/01/25 00:57:49;;;;;;;9.35;4.35;;;2.00;93.30;;;;;;4946162;29;20556;-80
2021/01/25 01:00:18;;;;;;;8.48;4.28;;;1.90;93.60;;;;;;4952815;29;20165;-80
2021/01/25 01:02:45;;;;;;;9.95;5.45;;;1.80;93.80;;;;;;4943380;29;20466;-80
2021/01/25 01:05:12;;;;;;;10.85;4.60;;;1.70;94.50;;;;;;4934076;29;20058;-79
2021/01/25 01:07:38;;;;;;;9.90;4.65;;;1.60;94.90;;;;;;4938969;29;20138;-79
2021/01/25 01:10:07;;;;;;;10.85;5.38;;;1.50;95.40;;;;;;4953057;29;20134;-79
2021/01/25 01:12:34;;;;;;;10.52;4.93;;;1.50;95.70;;;;;;4945192;29;20131;-79
2021/01/25 01:15:01;;;;;;;9.15;4.80;;;1.30;95.80;;;;;;4933663;29;20051;-79
2021/01/25 01:17:28;;;;;;;9.13;5.15;;;1.20;95.30;;;;;;4933445;29;20138;-80
2021/01/25 01:19:55;;;;;;;12.05;5.88;;;1.10;95.90;;;;;;4933406;29;20507;-79
2021/01/25 01:22:21;;;;;;;9.45;5.55;;;1.10;96.10;;;;;;4933907;29;20186;-80
2021/01/25 01:24:48;;;;;;;10.60;5.70;;;1.10;96.10;;;;;;4942203;29;20138;-79
2021/01/25 01:27:14;;;;;;;9.88;5.38;;;1.10;96.40;;;;;;4952525;29;20058;-79
2021/01/25 01:29:41;;;;;;;11.73;6.32;;;1.10;96.40;;;;;;4952673;29;20130;-80
2021/01/25 01:32:07;;;;;;;11.15;5.72;;;1.20;96.40;;;;;;4948890;29;20147;-80
2021/01/25 01:34:34;;;;;;;10.88;6.32;;;1.20;96.50;;;;;;4945106;29;20511;-80
2021/01/25 01:37:01;;;;;;;11.60;6.05;;;1.20;96.70;;;;;;4936920;29;20138;-79
2021/01/25 01:39:28;;;;;;;10.30;6.18;;;1.20;96.70;;;;;;4933271;29;20052;-80
2021/01/25 01:41:54;;;;;;;11.57;5.75;;;1.20;96.60;;;;;;4934363;29;20048;-79
2021/01/25 01:44:21;;;;;;;11.23;6.30;;;1.30;96.60;;;;;;4947127;29;20471;-79
2021/01/25 01:46:47;;;;;;;11.20;5.75;;;1.30;96.50;;;;;;4933209;29;20565;-79
2021/01/25 01:49:15;;;;;;;10.20;5.75;;;1.50;96.60;;;;;;4933366;29;20130;-79
2021/01/25 01:51:43;;;;;;;10.23;6.18;;;1.40;96.60;;;;;;4932680;29;20054;-79
2021/01/25 01:54:10;;;;;;;12.43;6.20;;;1.30;96.50;;;;;;4933114;29;20101;-79
2021/01/25 01:56:37;;;;;;;11.80;5.97;;;1.30;96.80;;;;;;4933060;29;20052;-79
2021/01/25 01:59:04;;;;;;;11.57;6.15;;;1.30;96.70;;;;;;4936804;29;20487;-79
2021/01/25 02:01:31;;;;;;;13.10;6.22;;;1.40;96.60;;;;;;4938497;29;20126;-79
2021/01/25 02:03:58;;;;;;;10.75;6.10;;;1.40;96.50;;;;;;4953593;29;20473;-79
2021/01/25 02:06:29;;;;;;;11.23;5.53;;;1.40;96.40;;;;;;4956024;29;20055;-79
2021/01/25 02:08:58;;;;;;;11.93;6.15;;;1.40;96.40;;;;;;4955782;29;20513;-79
2021/01/25 02:11:26;;;;;;;11.68;5.82;;;1.40;96.50;;;;;;4954102;29;20457;-79
2021/01/25 02:13:53;;;;;;;9.48;5.57;;;1.30;96.40;;;;;;4939811;29;20064;-79
2021/01/25 02:16:19;;;;;;;11.30;6.28;;;1.40;96.70;;;;;;4936486;29;20504;-79
2021/01/25 02:18:46;;;;;;;10.75;5.78;;;1.30;96.90;;;;;;4936818;29;20162;-79
2021/01/25 02:21:15;;;;;;;10.05;5.78;;;1.40;96.90;;;;;;4936763;29;20151;-79
2021/01/25 02:24:05;;;;;;;8.80;5.75;;;1.40;96.80;;;;;;4936944;29;20067;-79
2021/01/25 02:26:50;;;;;;;12.50;6.25;;;1.60;96.60;;;;;;4951337;29;20058;-79
2021/01/25 02:29:19;;;;;;;11.80;6.40;;;1.50;96.70;;;;;;4955774;29;20062;-79
2021/01/25 02:31:47;;;;;;;10.43;6.13;;;1.50;96.70;;;;;;4939672;29;20138;-79
2021/01/25 02:34:15;;;;;;;12.98;6.57;;;1.40;96.20;;;;;;4955467;29;20141;-79
2021/01/25 02:36:44;;;;;;;11.52;5.70;;;1.40;96.50;;;;;;4955260;29;20347;-80
2021/01/25 02:39:11;;;;;;;10.20;5.75;;;1.30;96.90;;;;;;4955560;29;20053;-80
2021/01/25 02:41:41;;;;;;;10.23;5.40;;;1.10;97.30;;;;;;4937807;29;20118;-80
2021/01/25 02:44:10;;;;;;;11.98;5.50;;;1.30;97.30;;;;;;4935804;29;20048;-79
2021/01/25 02:46:38;;;;;;;8.27;4.75;;;1.40;97.10;;;;;;4936226;29;20649;-79
2021/01/25 02:49:05;;;;;;;6.93;3.70;;;1.50;96.70;;;;;;4936024;29;20580;-79
2021/01/25 02:51:32;;;;;;;7.65;3.50;;;1.60;96.30;;;;;;4936027;29;20074;-78
2021/01/25 02:53:58;;;;;;;8.30;3.95;;;1.60;95.70;;;;;;4947306;29;20169;-78
2021/01/25 02:56:25;;;;;;;7.18;3.40;;;1.60;96.00;;;;;;4955313;29;20161;-79
2021/01/25 02:58:52;;;;;;;4.65;2.33;;;1.70;95.70;;;;;;4946436;29;20052;-78
2021/01/25 03:01:18;;;;;;;5.70;2.75;;;1.60;95.30;;;;;;4954493;29;20061;-78
2021/01/25 03:03:47;;;;;;;6.85;2.45;;;1.70;95.00;;;;;;4948673;29;20520;-78
2021/01/25 03:06:14;;;;;;;5.10;2.40;;;1.70;94.50;;;;;;4957188;29;20465;-79
2021/01/25 03:08:41;;;;;;;5.35;2.22;;;2.00;94.40;;;;;;4945621;29;20143;-78
2021/01/25 03:11:09;;;;;;;5.07;2.83;;;2.00;94.30;;;;;;4938124;29;20131;-79
2021/01/25 03:13:35;;;;;;;5.10;2.30;;;2.10;94.50;;;;;;4938377;29;20042;-78
2021/01/25 03:16:03;;;;;;;5.55;2.83;;;2.10;93.90;;;;;;4937979;29;20139;-78
2021/01/25 03:18:29;;;;;;;4.78;2.30;;;2.20;93.90;;;;;;4937813;29;20391;-79
2021/01/25 03:20:57;;;;;;;4.68;2.20;;;2.30;94.00;;;;;;4938017;29;20142;-78
2021/01/25 03:23:23;;;;;;;7.00;2.53;;;2.60;94.30;;;;;;4949096;29;20137;-78
2021/01/25 03:25:50;;;;;;;4.43;2.20;;;2.50;94.40;;;;;;4956753;29;20051;-78
2021/01/25 03:28:17;;;;;;;5.25;2.70;;;2.50;94.70;;;;;;4938095;29;20138;-78
2021/01/25 03:30:43;;;;;;;4.68;2.30;;;2.50;95.10;;;;;;4937678;29;20079;-79
2021/01/25 03:33:10;;;;;;;5.00;2.80;;;2.60;95.30;;;;;;4949517;29;20477;-78
2021/01/25 03:35:37;;;;;;;4.70;2.50;;;2.60;95.60;;;;;;4957066;29;20070;-78
2021/01/25 03:38:04;;;;;;;5.00;2.60;;;2.60;96.10;;;;;;4945936;29;20070;-78
2021/01/25 03:40:31;;;;;;;4.68;2.58;;;2.60;96.30;;;;;;4937414;29;20127;-79
2021/01/25 03:42:57;;;;;;;6.55;2.92;;;2.60;96.90;;;;;;4937753;29;20047;-79
2021/01/25 03:45:24;;;;;;;5.07;2.85;;;2.60;97.10;;;;;;4937475;29;20083;-78
2021/01/25 03:47:50;;;;;;;5.70;2.90;;;2.60;97.40;;;;;;4937412;29;20090;-78
2021/01/25 03:50:17;;;;;;;5.07;2.78;;;2.60;98.20;;;;;;4939104;29;20055;-78
2021/01/25 03:52:44;;;;;;;5.40;2.88;;;2.60;98.30;;;;;;4949668;29;20130;-78
2021/01/25 03:55:12;;;;;;;5.75;2.90;;;2.60;98.50;;;;;;4937257;29;20051;-78
2021/01/25 03:57:39;;;;;;;5.75;2.85;;;2.60;98.80;;;;;;4937071;29;20130;-79
2021/01/25 04:00:08;;;;;;;5.07;2.90;;;2.60;98.80;;;;;;4936986;29;20568;-78
2021/01/25 04:02:34;;;;;;;8.07;3.95;;;2.60;99.20;;;;;;4939747;29;20596;-79
2021/01/25 04:05:01;;;;;;;6.15;3.30;;;2.60;99.20;;;;;;4954684;29;20130;-80
2021/01/25 04:07:28;;;;;;;5.75;2.97;;;2.60;99.40;;;;;;4953992;29;20138;-78
2021/01/25 04:09:54;;;;;;;6.40;3.10;;;2.50;99.60;;;;;;4954417;29;20485;-79
2021/01/25 04:12:22;;;;;;;5.70;2.90;;;2.60;99.60;;;;;;4952089;29;20134;-80
2021/01/25 04:14:49;;;;;;;6.78;3.40;;;2.60;99.70;;;;;;4938321;29;20047;-80
2021/01/25 04:17:15;;;;;;;5.90;3.30;;;2.60;99.90;;;;;;4951450;29;20572;-78
2021/01/25 04:19:42;;;;;;;6.32;3.17;;;2.50;99.90;;;;;;4951796;28;20555;-77
2021/01/25 04:22:08;;;;;;;5.53;3.22;;;2.60;99.90;;;;;;4951608;29;20051;-79
2021/01/25 04:24:35;;;;;;;6.88;3.78;;;2.60;99.90;;;;;;4934891;29;20134;-78
2021/01/25 04:27:01;;;;;;;6.65;3.55;;;2.50;99.90;;;;;;4934906;29;20130;-78
2021/01/25 04:29:29;;;;;;;7.25;3.85;;;2.50;99.80;;;;;;4934604;29;20509;-78
2021/01/25 04:31:55;;;;;;;6.90;3.85;;;2.50;99.60;;;;;;4947599;29;20063;-79
2021/01/25 04:34:22;;;;;;;6.25;4.10;;;2.60;99.60;;;;;;4934569;29;20497;-79
2021/01/25 04:36:48;;;;;;;9.25;4.72;;;2.50;99.70;;;;;;4934797;29;20083;-80
2021/01/25 04:39:15;;;;;;;7.75;4.88;;;2.50;99.60;;;;;;4934751;29;20471;-79
2021/01/25 04:41:42;;;;;;;8.15;5.15;;;2.40;99.60;;;;;;4934455;29;20043;-78
2021/01/25 04:44:10;;;;;;;7.90;5.30;;;2.40;99.90;;;;;;4942892;29;20048;-78
2021/01/25 04:46:38;;;;;;;8.80;5.30;;;2.40;99.90;;;;;;4934568;29;20127;-79
2021/01/25 04:49:06;;;;;;;8.82;5.60;;;2.30;99.90;;;;;;4947972;29;20059;-79
2021/01/25 04:51:33;;;;;;;9.90;5.95;;;2.30;99.90;;;;;;4945935;29;20091;-79
2021/01/25 04:54:00;;;;;;;11.95;6.50;;;2.20;99.90;;;;;;4933546;29;20131;-78
2021/01/25 04:56:29;;;;;;;9.82;6.45;;;2.20;99.90;;;;;;4934169;29;20135;-79
2021/01/25 04:58:56;;;;;;;12.07;6.32;;;2.40;99.90;;;;;;4934202;29;20138;-79
2021/01/25 05:01:23;;;;;;;10.93;6.25;;;2.30;99.90;;;;;;4934380;29;20146;-77
2021/01/25 05:03:50;;;;;;;9.55;6.22;;;2.30;99.90;;;;;;4947037;29;20627;-78
2021/01/25 05:06:17;;;;;;;10.90;6.20;;;2.20;99.90;;;;;;4953250;29;20079;-79
2021/01/25 05:08:44;;;;;;;9.43;5.80;;;2.20;99.90;;;;;;4953117;29;20106;-79
2021/01/25 05:11:15;;;;;;;9.77;6.22;;;2.20;99.90;;;;;;4953150;29;20158;-79
2021/01/25 05:13:41;;;;;;;10.18;6.50;;;2.20;99.90;;;;;;4946202;29;20053;-78
2021/01/25 05:16:17;;;;;;;12.48;7.25;;;2.20;99.90;;;;;;4953092;29;20078;-78
2021/01/25 05:18:44;;;;;;;9.05;6.07;;;2.20;99.90;;;;;;4953044;29;20142;-78
2021/01/25 05:21:12;;;;;;;10.45;6.63;;;2.20;99.90;;;;;;4952991;29;20125;-79
2021/01/25 05:23:40;;;;;;;9.60;6.28;;;2.10;99.90;;;;;;4951057;29;20126;-80
2021/01/25 05:26:07;;;;;;;12.10;7.10;;;2.10;99.90;;;;;;4952838;29;20134;-77
2021/01/25 05:28:42;;;;;;;10.80;6.60;;;2.10;99.90;;;;;;4942418;29;20468;-77
2021/01/25 05:31:22;;;;;;;12.68;7.40;;;2.00;99.90;;;;;;4934237;29;20155;-78
2021/01/25 05:33:49;;;;;;;11.23;7.15;;;2.00;99.90;;;;;;4952693;29;20130;-77
2021/01/25 05:36:21;;;;;;;10.63;6.88;;;2.00;99.90;;;;;;4952904;29;20138;-78
2021/01/25 05:38:50;;;;;;;10.63;6.38;;;2.10;99.90;;;;;;4953005;29;20051;-77
2021/01/25 05:41:18;;;;;;;9.63;6.30;;;2.00;99.90;;;;;;4952145;29;20054;-77
2021/01/25 05:43:45;;;;;;;9.82;6.82;;;2.10;99.90;;;;;;4952941;29;20054;-77
2021/01/25 05:46:14;;;;;;;13.27;7.57;;;2.20;99.90;;;;;;4952681;29;20470;-77
2021/01/25 05:48:42;;;;;;;11.27;7.22;;;2.10;99.90;;;;;;4952616;29;20539;-77
2021/01/25 05:51:14;;;;;;;12.38;7.72;;;2.00;99.90;;;;;;4952661;29;20142;-77
2021/01/25 05:53:44;;;;;;;11.25;6.93;;;1.90;99.90;;;;;;4952714;29;20134;-77
2021/01/25 05:56:12;;;;;;;12.27;7.10;;;1.90;99.90;;;;;;4944635;29;20050;-77
2021/01/25 05:58:40;;;;;;;11.68;7.15;;;1.80;99.90;;;;;;4933469;29;20139;-78
2021/01/25 06:01:07;;;;;;;12.38;7.43;;;1.80;99.90;;;;;;4933323;29;20146;-77
2021/01/25 06:03:37;;;;;;;10.70;7.18;;;1.80;99.90;;;;;;4933899;29;20094;-77
2021/01/25 06:06:08;;;;;;;12.32;7.75;;;1.80;99.90;;;;;;4933527;29;20417;-77
2021/01/25 06:08:59;;;;;;;11.98;7.13;;;1.70;99.90;;;;;;4933359;29;20114;-77
2021/01/25 06:11:29;;;;;;;11.82;7.82;;;1.70;99.90;;;;;;4944722;29;20521;-77
2021/01/25 06:14:00;;;;;;;10.93;7.13;;;1.70;99.90;;;;;;4952470;29;20054;-77
2021/01/25 06:16:28;;;;;;;11.57;7.70;;;1.70;99.90;;;;;;4952282;29;20085;-77
2021/01/25 06:19:01;;;;;;;13.73;8.25;;;1.70;99.90;;;;;;4952311;29;20063;-77
2021/01/25 06:21:31;;;;;;;12.43;7.60;;;1.70;99.90;;;;;;4952367;29;20047;-77
2021/01/25 06:24:01;;;;;;;11.38;7.57;;;1.70;99.90;;;;;;4945840;29;20052;-77
2021/01/25 06:26:30;;;;;;;12.88;8.13;;;1.60;99.90;;;;;;4933236;29;20497;-77
2021/01/25 06:29:01;;;;;;;14.45;8.60;;;1.50;99.90;;;;;;4933113;29;20138;-77
2021/01/25 06:31:28;;;;;;;11.82;8.38;;;1.50;99.90;;;;;;4933626;29;20063;-77
2021/01/25 06:33:54;;;;;;;14.07;8.75;;;1.40;99.90;;;;;;4933422;29;20190;-77
2021/01/25 06:36:22;;;;;;;17.27;9.57;;;1.40;99.90;;;;;;4933273;29;20134;-77
2021/01/25 06:38:50;;;;;;;15.68;9.10;;;1.40;99.90;;;;;;4933274;29;20052;-77
2021/01/25 06:41:18;;;;;;;14.88;8.85;;;1.50;99.90;;;;;;4933383;29;20085;-77
2021/01/25 06:43:48;;;;;;;12.90;8.43;;;1.50;99.90;;;;;;4933957;29;20153;-77
2021/01/25 06:46:22;;;;;;;14.02;8.43;;;1.60;99.90;;;;;;4936919;29;20054;-77
2021/01/25 06:48:51;;;;;;;12.57;7.80;;;1.70;99.90;;;;;;4936487;29;20130;-77
2021/01/25 06:51:19;;;;;;;11.93;8.07;;;1.70;99.90;;;;;;4936307;29;20135;-77
2021/01/25 06:53:49;;;;;;;12.90;8.18;;;1.90;99.90;;;;;;4945431;29;20074;-77
2021/01/25 06:56:16;;;;;;;13.68;8.80;;;1.90;99.90;;;;;;4955384;29;20051;-77
2021/01/25 06:58:48;;;;;;;13.52;8.23;;;2.00;99.90;;;;;;4955262;29;20053;-77
2021/01/25 07:01:19;;;;;;;12.35;7.78;;;2.00;99.90;;;;;;4955455;29;20098;-77
2021/01/25 07:03:56;;;;;;;13.25;8.05;;;2.10;99.90;;;;;;4955421;29;20051;-77
2021/01/25 07:06:23;;;;;;;12.10;7.95;;;2.10;99.90;;;;;;4956075;29;20059;-77
2021/01/25 07:08:55;;;;;;;12.38;8.40;;;2.00;99.90;;;;;;4943095;29;20138;-77
2021/01/25 07:11:23;;;;;;;11.85;7.65;;;2.00;99.90;;;;;;4936236;29;20126;-77
2021/01/25 07:13:51;;;;;;;13.60;7.88;;;2.10;99.90;;;;;;4936019;29;20047;-77
2021/01/25 07:16:18;;;;;;;14.48;8.25;;;1.90;99.90;;;;;;4935978;29;20052;-77
2021/01/25 07:18:48;;;;;;;12.77;8.15;;;1.90;99.90;;;;;;4936018;29;20051;-77
2021/01/25 07:21:16;;;;;;;12.70;8.10;;;1.90;99.90;;;;;;4941554;29;20130;-77
2021/01/25 07:23:44;;;;;;;13.20;8.82;;;1.80;99.90;;;;;;4955082;29;20428;-77
2021/01/25 07:26:12;;;;;;;11.77;7.97;;;1.80;99.90;;;;;;4954896;29;20130;-77
2021/01/25 07:28:40;;;;;;;13.32;8.30;;;1.70;99.90;;;;;;4954983;29;20142;-77
2021/01/25 07:31:09;;;;;;;12.75;8.23;;;1.70;99.90;;;;;;4954876;29;20105;-77
2021/01/25 07:33:35;;;;;;;12.43;8.32;;;1.80;99.90;;;;;;4955049;29;20058;-77
2021/01/25 07:36:02;;;;;;;14.60;8.45;;;1.70;99.90;;;;;;4948617;29;20130;-77
2021/01/25 07:38:29;;;;;;;13.82;9.00;;;1.60;99.90;;;;;;4935728;29;20106;-77
2021/01/25 07:40:58;;;;;;;15.27;9.23;;;1.60;99.90;;;;;;4935396;29;20572;-77
2021/01/25 07:43:27;;;;;;;13.35;8.90;;;1.60;99.90;;;;;;4935701;29;20139;-77
2021/01/25 07:45:55;;;;;;;13.43;8.95;;;1.60;99.90;;;;;;4935739;29;20146;-77
2021/01/25 07:48:22;;;;;;;14.68;8.80;;;1.60;99.90;;;;;;4934319;29;20094;-78
2021/01/25 07:50:57;;;;;;;13.35;8.40;;;1.70;99.90;;;;;;4941394;29;20601;-77
2021/01/25 07:53:23;;;;;;;;;;;1.60;99.90;;;;;;4955093;29;20204;-77
2021/01/25 07:55:50;;;;;;;14.95;8.82;;;1.70;99.90;;;;;;4953539;28;20012;-77
2021/01/25 07:58:17;;;;;;;11.73;7.57;;;1.80;99.90;;;;;;4954386;29;20138;-77
2021/01/25 08:00:44;;;;;;;13.27;7.65;;;1.90;99.90;;;;;;4952538;29;20138;-77
2021/01/25 08:03:16;;;;;;;13.70;8.45;;;2.00;99.90;;;;;;4954136;29;20083;-77
2021/01/25 08:05:49;;;;;;;16.10;7.35;;;2.00;99.90;;;;;;4954248;29;20051;-77
2021/01/25 08:08:16;;;;;;;10.98;7.68;;;2.10;99.90;;;;;;4953876;29;20162;-77
2021/01/25 08:10:43;;;;;;;12.15;7.35;;;2.20;99.90;;;;;;4954236;29;20179;-77
2021/01/25 08:13:16;;;;;;;12.02;7.05;;;2.30;99.90;;;;;;4952553;29;20493;-77
2021/01/25 08:15:52;;;;;;;11.13;7.22;;;2.20;99.90;;;;;;4954225;29;20055;-78
2021/01/25 08:18:23;;;;;;;11.90;6.78;;;2.40;99.90;;;;;;4953902;29;20141;-77
2021/01/25 08:20:50;;;;;;;9.18;5.88;;;2.40;99.90;;;;;;4953823;29;20575;-78
2021/01/25 08:23:21;;;;;;;11.75;6.50;;;2.30;99.90;;;;;;4953895;29;20135;-78
2021/01/25 08:25:57;;;;;;;11.00;6.18;;;2.30;99.90;;;;;;4953958;29;20114;-78
2021/01/25 08:28:28;;;;;;;9.45;5.93;;;2.30;99.90;;;;;;4953682;29;20094;-77
2021/01/25 08:31:09;;;;;;;8.00;5.07;;;2.30;99.90;;;;;;4951990;29;20050;-77
2021/01/25 08:33:38;;;;;;;8.60;4.38;;;2.20;99.90;;;;;;4954118;29;20141;-77
2021/01/25 08:36:07;;;;;;;8.63;5.00;;;2.20;99.90;;;;;;4953650;29;20141;-77
2021/01/25 08:38:40;;;;;;;9.02;5.40;;;2.10;99.90;;;;;;4953369;29;20142;-76
2021/01/25 08:41:21;;;;;;;9.05;5.75;;;2.20;99.90;;;;;;4953588;29;20481;-77
2021/01/25 08:43:54;;;;;;;8.70;5.28;;;2.30;99.90;;;;;;4953692;29;20130;-77
2021/01/25 08:46:29;;;;;;;7.75;5.00;;;2.30;99.90;;;;;;4953155;29;20051;-78
2021/01/25 08:49:07;;;;;;;7.70;4.78;;;2.40;99.90;;;;;;4953491;29;20142;-79
2021/01/25 08:51:35;;;;;;;8.27;4.75;;;2.50;99.90;;;;;;4953690;29;20509;-77
2021/01/25 08:54:05;;;;;;;8.45;4.97;;;2.40;99.90;;;;;;4953597;29;20189;-80
2021/01/25 08:56:38;;;;;;;7.95;4.75;;;2.50;99.90;;;;;;4953738;29;20135;-77
2021/01/25 08:59:10;;;;;;;7.40;4.78;;;2.60;99.90;;;;;;4943828;29;20048;-77
2021/01/25 09:01:39;;;;;;;7.90;3.90;;;2.80;99.90;;;;;;4933022;29;20402;-79
2021/01/25 09:04:06;;;;;;;8.23;4.45;;;2.80;99.90;;;;;;4933792;29;20102;-79
2021/01/25 09:06:38;;;;;;;7.72;4.50;;;2.70;99.90;;;;;;4933189;29;20048;-79
2021/01/25 09:09:06;;;;;;;8.23;4.50;;;2.60;99.90;;;;;;4933506;29;20051;-79
2021/01/25 09:11:34;;;;;;;6.75;4.40;;;2.50;99.90;;;;;;4933549;29;20134;-78
2021/01/25 09:14:01;;;;;;;7.75;4.78;;;2.50;99.90;;;;;;4943863;29;20137;-79
2021/01/25 09:16:27;;;;;;;7.45;4.70;;;2.20;99.90;;;;;;4952687;29;20561;-78
2021/01/25 09:18:55;;;;;;;8.32;5.22;;;2.10;99.90;;;;;;4952616;29;20059;-79
2021/01/25 09:21:21;;;;;;;9.27;5.55;;;2.10;99.90;;;;;;4952706;29;20062;-79
2021/01/25 09:23:48;;;;;;;8.93;5.55;;;2.10;99.90;;;;;;4952804;29;20433;-79
2021/01/25 09:26:14;;;;;;;10.57;5.28;;;2.10;99.90;;;;;;4953072;29;20146;-79
2021/01/25 09:28:41;;;;;;;8.82;5.18;;;2.10;99.90;;;;;;4941966;29;20171;-79
2021/01/25 09:31:08;;;;;;;9.02;5.68;;;2.20;99.90;;;;;;4933153;29;20078;-79
2021/01/25 09:33:35;;;;;;;8.68;5.55;;;2.30;99.90;;;;;;4933105;29;20126;-79
2021/01/25 09:36:03;;;;;;;8.65;5.70;;;2.50;99.90;;;;;;4933342;29;20392;-79
2021/01/25 09:38:29;;;;;;;9.23;5.53;;;2.60;99.90;;;;;;4933175;29;20489;-79
2021/01/25 09:40:56;;;;;;;7.18;4.72;;;2.70;99.90;;;;;;4933077;29;20123;-79
2021/01/25 09:43:23;;;;;;;8.10;4.95;;;2.80;99.90;;;;;;4939004;29;20129;-79
2021/01/25 09:45:50;;;;;;;8.60;4.97;;;2.60;99.90;;;;;;4951001;29;20047;-79
2021/01/25 09:48:16;;;;;;;9.00;5.38;;;2.60;99.90;;;;;;4936538;29;20134;-79
2021/01/25 09:50:47;;;;;;;9.40;5.70;;;2.60;99.90;;;;;;4932887;29;20291;-79
2021/01/25 09:53:15;;;;;;;8.63;5.25;;;2.70;99.90;;;;;;4939628;29;20054;-80
2021/01/25 09:55:42;;;;;;;10.05;5.38;;;2.70;99.90;;;;;;4967755;28;20059;-79
2021/01/25 09:58:08;;;;;;;9.57;5.70;;;2.70;99.90;;;;;;4969026;28;20149;-80
2021/01/25 10:00:35;;;;;;;8.48;5.45;;;2.80;99.90;;;;;;4952010;29;20138;-80
2021/01/25 10:03:01;;;;;;;9.60;5.38;;;2.90;99.90;;;;;;4952346;29;20436;-79
2021/01/25 10:05:28;;;;;;;9.05;5.60;;;2.90;99.90;;;;;;4952074;29;20145;-80
2021/01/25 10:07:54;;;;;;;8.32;5.63;;;2.90;99.90;;;;;;4951514;29;20146;-80
2021/01/25 10:10:24;;;;;;;7.03;5.07;;;3.10;99.90;;;;;;4954718;28;20576;-79
2021/01/25 10:12:51;;;;;;;9.40;5.70;;;3.10;99.90;;;;;;4971275;28;20496;-79
2021/01/25 10:15:18;;;;;;;9.38;5.95;;;3.10;99.90;;;;;;4970949;28;20138;-79
2021/01/25 10:17:45;;;;;;;9.10;5.93;;;3.10;99.90;;;;;;4971571;28;20492;-80
2021/01/25 10:20:13;;;;;;;9.15;5.82;;;3.20;99.90;;;;;;4974358;28;20467;-80
2021/01/25 10:22:39;;;;;;;9.30;5.97;;;3.20;99.90;;;;;;4974955;28;20050;-80
2021/01/25 10:25:08;;;;;;;8.93;6.05;;;3.30;99.90;;;;;;4974755;28;20560;-79
2021/01/25 10:27:37;;;;;;;9.00;6.45;;;3.50;99.90;;;;;;4975002;28;20452;-80
2021/01/25 10:30:06;;;;;;;11.15;7.15;;;3.60;99.90;;;;;;4975275;28;20145;-79
2021/01/25 10:32:33;;;;;;;9.27;5.95;;;3.40;99.90;;;;;;4975237;28;20105;-83
2021/01/25 10:34:59;;;;;;;10.02;6.47;;;3.40;99.90;;;;;;4975273;28;20481;-81
2021/01/25 10:37:27;;;;;;;9.15;6.13;;;3.30;99.90;;;;;;4974901;28;20134;-81
2021/01/25 10:39:54;;;;;;;11.00;6.28;;;3.00;99.90;;;;;;4974769;28;20138;-82
2021/01/25 10:42:20;;;;;;;9.85;6.63;;;3.10;99.90;;;;;;4958400;28;20075;-80
2021/01/25 10:44:47;;;;;;;11.25;6.93;;;3.20;99.90;;;;;;4943073;28;20150;-80
2021/01/25 10:47:18;;;;;;;10.10;7.07;;;3.10;99.90;;;;;;4942514;29;20047;-76
2021/01/25 10:49:45;;;;;;;9.32;7.00;;;3.00;99.90;;;;;;4954888;28;20074;-85
2021/01/25 10:52:12;;;;;;;10.10;6.90;;;3.30;99.90;;;;;;4974287;28;20134;-80
2021/01/25 10:54:39;;;;;;;9.25;6.57;;;3.20;99.90;;;;;;4957993;28;20074;-82
2021/01/25 10:57:07;;;;;;;10.68;6.70;;;3.00;99.90;;;;;;4942937;29;20581;-80
2021/01/25 10:59:33;;;;;;;10.27;6.95;;;2.90;99.90;;;;;;4935619;29;20434;-80
2021/01/25 11:02:01;;;;;;;9.95;6.38;;;3.00;99.90;;;;;;4936300;29;20158;-79
2021/01/25 11:04:27;;;;;;;9.48;5.85;;;3.00;99.90;;;;;;4935861;29;20575;-79
2021/01/25 11:06:54;;;;;;;9.23;5.82;;;2.90;99.90;;;;;;4935681;29;20883;-79
2021/01/25 11:09:20;;;;;;;10.55;6.72;;;2.90;99.90;;;;;;4935763;29;20139;-79
2021/01/25 11:11:47;;;;;;;10.52;6.53;;;3.00;99.90;;;;;;4950334;29;20134;-79
2021/01/25 11:14:13;;;;;;;10.32;6.13;;;3.10;99.90;;;;;;4954831;29;20130;-79
2021/01/25 11:16:42;;;;;;;9.10;6.18;;;3.00;99.90;;;;;;4954660;29;20102;-79
2021/01/25 11:19:10;;;;;;;10.95;6.38;;;3.10;99.90;;;;;;4943278;28;20143;-78
2021/01/25 11:21:37;;;;;;;11.90;6.40;;;3.00;99.90;;;;;;4974037;28;20485;-78
2021/01/25 11:24:06;;;;;;;9.40;6.28;;;3.00;99.90;;;;;;4959687;28;20476;-78
2021/01/25 11:26:37;;;;;;;8.95;6.00;;;3.00;99.90;;;;;;4968000;28;20055;-79
2021/01/25 11:29:04;;;;;;;9.70;6.30;;;3.10;99.90;;;;;;4972481;28;20504;-78
2021/01/25 11:31:30;;;;;;;11.05;6.38;;;3.10;99.90;;;;;;4954745;29;20130;-79
2021/01/25 11:33:57;;;;;;;9.02;5.65;;;3.10;99.90;;;;;;4954635;29;20138;-78
2021/01/25 11:36:24;;;;;;;9.43;5.90;;;3.10;99.90;;;;;;4954479;29;20138;-79
2021/01/25 11:38:51;;;;;;;8.77;6.10;;;3.30;99.90;;;;;;4953918;29;20073;-79
2021/01/25 11:41:18;;;;;;;9.32;6.10;;;3.20;99.90;;;;;;4955896;28;20592;-78
2021/01/25 11:43:44;;;;;;;9.73;5.95;;;3.20;99.90;;;;;;4973638;28;20185;-79
2021/01/25 11:46:11;;;;;;;9.98;5.30;;;3.40;99.90;;;;;;4973400;28;20129;-79
2021/01/25 11:48:38;;;;;;;9.00;5.40;;;3.50;99.90;;;;;;4962284;28;20131;-79
2021/01/25 11:51:05;;;;;;;9.68;6.05;;;3.50;99.90;;;;;;4964003;28;20054;-79
2021/01/25 11:53:32;;;;;;;8.10;5.00;;;3.70;99.90;;;;;;4973448;28;20057;-79
2021/01/25 11:55:59;;;;;;;8.35;5.13;;;3.70;99.90;;;;;;4956284;28;20134;-79
2021/01/25 11:58:26;;;;;;;8.20;5.43;;;3.70;99.90;;;;;;4953776;29;20055;-80
2021/01/25 12:00:53;;;;;;;9.23;5.50;;;3.80;99.90;;;;;;4954159;29;20048;-80
2021/01/25 12:03:19;;;;;;;8.93;5.32;;;4.10;99.90;;;;;;4953663;29;20134;-79
2021/01/25 12:05:46;;;;;;;8.93;5.72;;;4.20;99.90;;;;;;4940010;29;20544;-80
2021/01/25 12:08:13;;;;;;;9.80;5.55;;;4.30;99.90;;;;;;4934932;29;20111;-79
2021/01/25 12:10:40;;;;;;;7.50;5.10;;;4.30;99.90;;;;;;4935072;29;20070;-79
2021/01/25 12:13:07;;;;;;;7.32;4.55;;;4.30;99.90;;;;;;4934875;29;20048;-79
2021/01/25 12:15:33;;;;;;;8.20;5.13;;;4.30;99.90;;;;;;4934756;29;20055;-79
2021/01/25 12:18:00;;;;;;;7.50;4.78;;;4.20;99.90;;;;;;4934540;29;20134;-78
2021/01/25 12:20:27;;;;;;;8.18;4.35;;;4.20;99.90;;;;;;4947015;29;20160;-78
2021/01/25 12:22:53;;;;;;;8.15;5.00;;;4.10;99.90;;;;;;4953289;29;20130;-79
2021/01/25 12:25:20;;;;;;;5.47;3.40;;;4.10;99.90;;;;;;4953583;29;20081;-79
2021/01/25 12:27:49;;;;;;;6.68;3.65;;;4.00;99.90;;;;;;4952837;29;20083;-78
2021/01/25 12:30:17;;;;;;;6.38;2.92;;;4.10;99.90;;;;;;4938551;29;20039;-79
2021/01/25 12:32:44;;;;;;;4.30;2.47;;;4.10;99.90;;;;;;4934247;29;20062;-79
2021/01/25 12:35:12;;;;;;;3.88;2.10;;;4.20;99.90;;;;;;4934017;29;20143;-79
2021/01/25 12:37:39;;;;;;;4.10;2.00;;;4.20;99.90;;;;;;4934088;29;20063;-78
2021/01/25 12:40:08;;;;;;;3.78;1.83;;;4.30;99.90;;;;;;4934106;29;20135;-78
2021/01/25 12:42:34;;;;;;;3.42;1.60;;;4.30;99.90;;;;;;4933606;29;20520;-78
2021/01/25 12:45:03;;;;;;;3.88;1.70;;;4.20;99.90;;;;;;4938386;29;20135;-78
2021/01/25 12:47:29;;;;;;;3.50;1.70;;;4.00;99.90;;;;;;4953325;29;20129;-78
2021/01/25 12:49:56;;;;;;;4.13;1.90;;;3.90;99.90;;;;;;4953082;29;20085;-79
2021/01/25 12:52:22;;;;;;;4.47;1.80;;;3.90;99.90;;;;;;4953412;29;20138;-79
2021/01/25 12:54:49;;;;;;;3.72;1.70;;;4.10;99.90;;;;;;4953270;29;20174;-79
2021/01/25 12:57:15;;;;;;;3.50;1.92;;;4.20;99.90;;;;;;4952817;29;20063;-79